Time;durP1;ratioP1;P1;durP2;ratioP2;P2;SDS_P1;SDS_P2;PMS_P1;PMS_P2;Temp;Humidity;BMP_temperature;BMP_pressure;BME280_temperature;BME280_humidity;BME280_pressure;Samples;Min_cycle;Max_cycle;Signal;HPM_P1;HPM_P2
2022/11/10 00:00:29;;;;;;;10.40;5.43;;;;;;;16.89;65.26;99140.63;6894718;28;20204;-78
2022/11/10 00:03:51;;;;;;;7.03;5.20;;;;;;;17.10;64.61;99131.00;6894168;28;20323;-78
2022/11/10 00:07:12;;;;;;;7.87;4.80;;;;;;;16.75;64.91;99141.91;6894319;28;20374;-77
2022/11/10 00:10:55;;;;;;;9.17;5.70;;;;;;;16.85;64.49;99112.19;6893808;28;20690;-78
2022/11/10 00:17:57;;;;;;;5.70;4.23;;;;;;;16.70;64.38;99165.47;6893724;28;20206;-78
2022/11/10 00:21:19;;;;;;;7.30;3.80;;;;;;;17.05;63.14;99144.50;6893789;28;20359;-78
2022/11/10 00:24:40;;;;;;;8.50;4.27;;;;;;;16.97;63.81;99151.13;6893318;28;20368;-78
2022/11/10 00:28:02;;;;;;;8.80;5.47;;;;;;;16.19;66.42;99154.31;6894017;28;20685;-78
2022/11/10 00:31:27;;;;;;;9.23;5.10;;;;;;;16.88;64.46;99149.81;6893117;28;20305;-79
2022/11/10 00:34:48;;;;;;;6.90;4.73;;;;;;;16.63;64.67;99151.94;6893116;28;20243;-78
2022/11/10 00:38:10;;;;;;;6.10;4.30;;;;;;;16.75;64.62;99147.34;6893458;28;20292;-78
2022/11/10 00:41:31;;;;;;;6.57;5.00;;;;;;;16.95;64.24;99166.91;6892036;28;20239;-79
2022/11/10 00:44:53;;;;;;;5.60;4.20;;;;;;;16.73;64.52;99168.53;6892636;28;20231;-77
2022/11/10 00:48:16;;;;;;;5.00;3.93;;;;;;;16.22;65.60;99172.91;6893336;28;20320;-78
2022/11/10 00:51:37;;;;;;;5.60;3.60;;;;;;;16.02;65.90;99166.91;6893031;28;20254;-78
2022/11/10 00:54:59;;;;;;;6.30;4.40;;;;;;;16.40;65.64;99189.19;6892206;28;20230;-78
2022/11/10 00:58:20;;;;;;;5.17;4.40;;;;;;;16.48;65.16;99184.25;6893044;28;20733;-77
2022/11/10 01:01:42;;;;;;;7.67;4.70;;;;;;;15.86;66.41;99156.69;6892934;28;20298;-79
2022/11/10 01:05:06;;;;;;;6.70;4.63;;;;;;;15.97;66.17;99183.09;6892230;28;20256;-78
2022/11/10 01:08:27;;;;;;;8.13;5.53;;;;;;;16.44;65.27;99191.22;6892590;28;20294;-78
2022/11/10 01:11:48;;;;;;;8.23;5.33;;;;;;;16.50;64.85;99194.88;6892215;28;20267;-78
2022/11/10 01:15:10;;;;;;;6.40;4.63;;;;;;;16.98;63.77;99209.19;6906705;28;20316;-78
2022/11/10 01:18:32;;;;;;;6.63;4.73;;;;;;;16.94;63.39;99210.72;6919490;28;20346;-77
2022/11/10 01:21:55;;;;;;;6.03;4.33;;;;;;;16.96;63.38;99219.47;6919320;28;20239;-78
2022/11/10 01:25:16;;;;;;;10.40;5.00;;;;;;;17.02;63.31;99226.69;6919038;28;20283;-78
2022/11/10 01:28:38;;;;;;;8.13;5.50;;;;;;;16.79;63.98;99218.50;6919551;28;20230;-78
2022/11/10 01:31:59;;;;;;;10.10;5.33;;;;;;;16.58;64.23;99198.09;6919422;28;20289;-78
2022/11/10 01:35:21;;;;;;;6.93;4.57;;;;;;;16.83;64.17;99230.59;6918712;28;20320;-78
2022/11/10 01:38:44;;;;;;;7.27;4.47;;;;;;;16.72;64.05;99224.06;6918584;28;20216;-79
2022/11/10 01:42:06;;;;;;;6.80;4.67;;;;;;;16.62;63.96;99229.25;6918307;28;20678;-78
2022/11/10 01:45:42;;;;;;;9.23;4.67;;;;;;;16.51;64.30;99229.25;6918341;28;20269;-78
2022/11/10 01:49:04;;;;;;;7.90;4.47;;;;;;;16.53;63.96;99238.84;6918731;28;20240;-78
2022/11/10 01:52:25;;;;;;;9.40;4.40;;;;;;;16.46;63.54;99251.69;6918414;28;20223;-78
2022/11/10 01:55:49;;;;;;;10.27;4.57;;;;;;;16.63;63.28;99244.50;6918205;28;20230;-78
2022/11/10 01:59:14;;;;;;;6.00;3.90;;;;;;;16.80;62.93;99234.63;6918456;28;20203;-78
2022/11/10 02:02:39;;;;;;;6.70;4.00;;;;;;;16.67;63.13;99253.03;6918251;28;20277;-78
2022/11/10 02:06:01;;;;;;;10.23;4.27;;;;;;;16.72;63.17;99250.47;6918597;28;20232;-78
2022/11/10 02:09:22;;;;;;;7.77;4.30;;;;;;;16.49;63.45;99253.97;6918233;28;20236;-78
2022/11/10 02:12:46;;;;;;;7.63;4.07;;;;;;;16.59;63.17;99247.94;6917802;28;20295;-78
2022/11/10 02:16:09;;;;;;;5.77;4.00;;;;;;;16.53;63.00;99254.31;6918380;28;20220;-77
2022/11/10 02:19:30;;;;;;;7.47;3.73;;;;;;;16.70;62.53;99263.50;6918107;28;20301;-78
2022/11/10 02:22:53;;;;;;;7.87;3.87;;;;;;;16.64;61.98;99259.78;6917086;28;20302;-78
2022/11/10 02:26:18;;;;;;;7.00;3.47;;;;;;;16.50;61.69;99266.50;6916880;28;20300;-78
2022/11/10 02:29:39;;;;;;;4.93;3.70;;;;;;;16.34;61.97;99280.72;6917196;28;20277;-78
2022/11/10 02:33:02;;;;;;;11.73;4.20;;;;;;;16.17;62.57;99287.84;6916747;28;20343;-79
2022/11/10 02:36:24;;;;;;;8.93;3.97;;;;;;;16.46;61.28;99292.50;6917036;28;20219;-78
2022/11/10 02:39:46;;;;;;;4.43;3.90;;;;;;;16.10;62.22;99292.56;6915526;28;20300;-79
2022/11/10 02:43:10;;;;;;;7.27;3.53;;;;;;;16.24;61.75;99288.63;6916682;28;20375;-77
2022/11/10 02:46:31;;;;;;;8.13;3.80;;;;;;;15.90;62.59;99307.44;6917335;28;20209;-78
2022/11/10 02:49:53;;;;;;;9.83;3.90;;;;;;;15.96;62.93;99306.53;6917121;28;20327;-78
2022/11/10 02:53:14;;;;;;;12.13;3.63;;;;;;;16.23;62.31;99299.72;6917896;28;20267;-78
2022/11/10 02:56:37;;;;;;;5.67;4.00;;;;;;;16.02;62.71;99311.06;6921984;28;20300;-78
2022/11/10 02:59:59;;;;;;;7.63;4.23;;;;;;;15.99;61.43;99328.69;6922420;28;20367;-77
2022/11/10 03:03:20;;;;;;;6.10;3.93;;;;;;;15.53;63.38;99330.22;6921458;28;20372;-78
2022/11/10 03:06:42;;;;;;;6.90;4.70;;;;;;;15.37;63.64;99285.44;6921934;28;20291;-78
2022/11/10 03:10:04;;;;;;;5.73;4.17;;;;;;;15.56;63.92;99346.06;6922342;28;20306;-77
2022/11/10 03:13:27;;;;;;;12.40;4.70;;;;;;;15.37;65.18;99336.22;6922040;28;20324;-78
2022/11/10 03:16:49;;;;;;;9.47;4.90;;;;;;;15.44;64.56;99337.84;6917114;28;20241;-77
2022/11/10 03:20:11;;;;;;;11.27;4.23;;;;;;;15.58;64.72;99347.50;6922353;28;20277;-77
2022/11/10 03:23:32;;;;;;;7.00;4.50;;;;;;;15.56;64.04;99348.78;6922193;28;20638;-77
2022/11/10 03:26:54;;;;;;;7.20;4.40;;;;;;;15.73;63.16;99349.88;6922526;28;20273;-77
2022/11/10 03:30:17;;;;;;;7.70;4.40;;;;;;;15.78;63.59;99356.31;6922248;28;20288;-76
2022/11/10 03:33:38;;;;;;;7.73;4.40;;;;;;;15.80;63.71;99372.41;6921371;28;20894;-77
2022/11/10 03:37:00;;;;;;;7.17;4.50;;;;;;;16.01;63.24;99366.53;6922370;28;20264;-77
2022/11/10 03:40:21;;;;;;;9.23;4.30;;;;;;;15.80;62.98;99377.88;6921682;28;20680;-75
2022/11/10 03:43:43;;;;;;;6.20;5.03;;;;;;;15.93;62.23;99375.00;6921493;28;20295;-77
2022/11/10 03:47:06;;;;;;;8.03;3.90;;;;;;;15.80;62.33;99383.31;6922098;28;20292;-77
2022/11/10 03:50:27;;;;;;;7.30;4.70;;;;;;;15.34;63.96;99380.97;6921785;28;20323;-77
2022/11/10 03:53:49;;;;;;;9.67;4.87;;;;;;;15.63;63.60;99388.47;6921416;28;20369;-77
2022/11/10 03:57:11;;;;;;;8.17;4.53;;;;;;;15.86;63.06;99388.66;6921355;28;20299;-77
2022/11/10 04:00:32;;;;;;;6.30;4.43;;;;;;;15.82;62.64;99392.88;6921649;28;20344;-77
2022/11/10 04:03:55;;;;;;;8.83;4.70;;;;;;;15.57;63.13;99394.78;6920933;28;20323;-77
2022/11/10 04:10:56;;;;;;;6.23;4.03;;;;;;;15.39;63.48;99412.94;6921175;28;20207;-76
2022/11/10 04:18:19;;;;;;;8.73;4.67;;;;;;;15.51;62.78;99409.25;6920863;28;20180;-76
2022/11/10 04:21:40;;;;;;;8.83;4.53;;;;;;;15.51;62.87;99408.44;6920869;28;20209;-77
2022/11/10 04:25:01;;;;;;;9.10;5.33;;;;;;;15.05;63.79;99425.03;6921612;28;20711;-77
2022/11/10 04:28:23;;;;;;;9.70;5.13;;;;;;;15.14;63.87;99431.03;6920889;28;20326;-78
2022/11/10 04:31:44;;;;;;;12.40;5.40;;;;;;;15.47;63.19;99415.38;6920548;28;20293;-76
2022/11/10 04:35:06;;;;;;;8.47;5.23;;;;;;;15.49;63.58;99435.84;6919201;28;20631;-77
2022/11/10 04:38:29;;;;;;;10.17;5.23;;;;;;;15.62;63.13;99438.44;6920001;28;20287;-77
2022/11/10 04:41:51;;;;;;;8.10;4.63;;;;;;;15.66;62.82;99436.97;6918828;28;20809;-77
2022/11/10 04:45:12;;;;;;;10.30;4.83;;;;;;;14.77;63.28;99426.47;6918993;28;20382;-77
2022/11/10 04:48:35;;;;;;;6.87;4.37;;;;;;;14.88;63.69;99433.94;6919215;28;20346;-77
2022/11/10 04:51:56;;;;;;;6.23;4.37;;;;;;;15.01;63.42;99437.41;6919016;28;20365;-77
2022/11/10 04:55:19;;;;;;;7.70;4.63;;;;;;;14.60;64.65;99453.28;6918543;28;20791;-77
2022/11/10 04:58:41;;;;;;;9.97;5.30;;;;;;;15.01;63.69;99467.28;6918731;28;20416;-77
2022/11/10 05:02:02;;;;;;;8.87;5.23;;;;;;;14.67;64.30;99464.94;6918527;28;20298;-77
2022/11/10 05:05:24;;;;;;;9.87;5.07;;;;;;;15.24;63.21;99477.59;6918623;28;20395;-77
2022/11/10 05:08:46;;;;;;;6.50;4.33;;;;;;;15.33;62.66;99481.75;6918471;28;20277;-77
2022/11/10 05:12:09;;;;;;;7.67;4.80;;;;;;;15.22;62.58;99466.13;6918895;28;20668;-77
2022/11/10 05:15:31;;;;;;;14.40;4.90;;;;;;;14.89;63.46;99495.31;6912338;28;20311;-77
2022/11/10 05:18:53;;;;;;;7.17;4.27;;;;;;;15.12;62.50;99491.03;6917592;28;20213;-77
2022/11/10 05:22:14;;;;;;;7.30;4.30;;;;;;;15.03;62.32;99483.34;6918658;28;20207;-77
2022/11/10 05:25:39;;;;;;;9.10;4.50;;;;;;;14.94;62.62;99499.06;6917798;28;20315;-77
2022/11/10 05:29:02;;;;;;;7.40;4.40;;;;;;;14.67;63.32;99499.38;6918398;28;20570;-78
2022/11/10 05:32:23;;;;;;;5.60;4.47;;;;;;;14.53;62.96;99506.75;6918065;28;20285;-77
2022/11/10 05:35:45;;;;;;;14.80;6.07;;;;;;;14.42;62.89;99495.69;6917923;28;20318;-77
2022/11/10 05:39:06;;;;;;;16.03;12.70;;;;;;;14.53;62.74;99533.88;6917350;28;20679;-79
2022/11/10 05:42:28;;;;;;;18.63;13.57;;;;;;;14.37;62.97;99501.78;6917464;28;20278;-77
2022/11/10 05:45:51;;;;;;;22.67;19.07;;;;;;;14.52;62.52;99515.09;6917934;28;20287;-77
2022/11/10 05:49:13;;;;;;;8.13;6.80;;;;;;;14.59;61.98;99526.75;6917990;28;20229;-77
2022/11/10 05:52:35;;;;;;;7.90;5.17;;;;;;;14.54;61.91;99513.00;6916985;28;20315;-77
2022/11/10 05:55:56;;;;;;;7.07;4.57;;;;;;;14.13;62.06;99520.53;6919359;28;20671;-79
2022/11/10 05:59:18;;;;;;;12.30;5.27;;;;;;;14.04;62.62;99519.13;6927908;28;20292;-78
2022/11/10 06:02:41;;;;;;;8.73;4.87;;;;;;;14.02;62.49;99511.19;6931870;28;20219;-78
2022/11/10 06:06:03;;;;;;;10.80;6.47;;;;;;;13.86;62.38;99511.59;6924687;28;20222;-79
2022/11/10 06:09:24;;;;;;;8.80;5.60;;;;;;;13.94;62.52;99556.66;6922684;28;20272;-79
2022/11/10 06:12:46;;;;;;;8.87;5.63;;;;;;;13.99;61.79;99559.56;6921707;28;20250;-79
2022/11/10 06:16:08;;;;;;;7.97;5.43;;;;;;;13.96;61.74;99554.56;6921821;28;20305;-79
2022/11/10 06:19:30;;;;;;;11.33;5.87;;;;;;;13.80;62.08;99565.81;6921668;28;20235;-79
2022/11/10 06:23:00;;;;;;;8.27;5.80;;;;;;;13.69;62.03;99593.53;6920424;28;20212;-79
2022/11/10 06:26:21;;;;;;;9.97;6.10;;;;;;;13.66;62.69;99608.31;6920424;28;20248;-79
2022/11/10 06:29:42;;;;;;;6.73;4.73;;;;;;;13.70;61.98;99606.03;6923865;28;20308;-79
2022/11/10 06:33:04;;;;;;;7.33;4.77;;;;;;;13.76;61.85;99608.75;6926214;28;20712;-79
2022/11/10 06:36:27;;;;;;;5.20;4.47;;;;;;;13.66;61.85;99599.34;6927121;28;20246;-82
2022/11/10 06:39:48;;;;;;;6.17;4.23;;;;;;;13.86;61.31;99597.53;6926206;28;20319;-79
2022/11/10 06:43:10;;;;;;;6.63;4.40;;;;;;;13.27;62.27;99635.28;6925859;28;20277;-79
2022/11/10 06:46:31;;;;;;;7.87;5.67;;;;;;;13.05;62.95;99638.31;6926172;28;20233;-80
2022/11/10 06:49:53;;;;;;;8.63;5.77;;;;;;;13.09;63.10;99653.94;6925875;28;20281;-81
2022/11/10 06:53:17;;;;;;;7.53;4.90;;;;;;;13.38;63.08;99669.06;6909340;28;20232;-80
2022/11/10 06:56:38;;;;;;;7.67;5.57;;;;;;;13.60;64.35;99662.50;6898914;28;20208;-80
2022/11/10 07:00:00;;;;;;;6.73;4.73;;;;;;;13.70;63.10;99662.94;6898378;28;20287;-78
2022/11/10 07:03:21;;;;;;;9.50;4.87;;;;;;;13.99;61.83;99679.69;6896239;28;20374;-78
2022/11/10 07:06:43;;;;;;;8.47;5.03;;;;;;;13.87;62.12;99694.88;6897692;28;20330;-77
2022/11/10 07:10:07;;;;;;;7.97;5.70;;;;;;;13.78;62.29;99668.19;6897610;28;20296;-77
2022/11/10 07:13:28;;;;;;;7.97;5.57;;;;;;;13.30;62.57;99704.47;6896936;28;20776;-78
2022/11/10 07:16:50;;;;;;;8.17;6.00;;;;;;;13.41;62.98;99704.75;6901396;28;20299;-79
2022/11/10 07:20:11;;;;;;;10.83;6.87;;;;;;;13.26;64.03;99714.88;6897289;28;20335;-79
2022/11/10 07:23:33;;;;;;;11.10;6.90;;;;;;;13.37;64.54;99719.72;6895867;28;20228;-77
2022/11/10 07:26:57;;;;;;;12.13;7.90;;;;;;;13.44;64.80;99741.41;6896876;28;20218;-78
2022/11/10 07:30:18;;;;;;;12.47;8.67;;;;;;;13.85;64.34;99739.50;6896684;28;20232;-78
2022/11/10 07:33:40;;;;;;;12.70;7.77;;;;;;;13.87;64.53;99737.44;6896459;28;20315;-78
2022/11/10 07:37:01;;;;;;;9.40;8.37;;;;;;;14.19;64.39;99734.84;6901985;28;20236;-78
2022/11/10 07:40:23;;;;;;;12.60;8.83;;;;;;;14.33;64.28;99735.72;6894429;28;20208;-78
2022/11/10 07:43:46;;;;;;;10.53;7.30;;;;;;;14.78;63.33;99718.59;6895739;28;20265;-78
2022/11/10 07:47:07;;;;;;;7.87;6.87;;;;;;;14.72;62.76;99735.72;6897740;28;20259;-77
2022/11/10 07:50:29;;;;;;;10.27;6.67;;;;;;;14.19;64.24;99740.28;6898537;28;20316;-79
2022/11/10 07:53:51;;;;;;;7.30;6.03;;;;;;;14.29;64.61;99753.44;6897486;28;20315;-78
2022/11/10 07:57:12;;;;;;;9.50;7.27;;;;;;;14.50;63.99;99759.53;6897104;28;20347;-78
2022/11/10 08:00:36;;;;;;;11.30;7.93;;;;;;;14.51;64.28;99761.19;6896475;28;20528;-77
2022/11/10 08:03:57;;;;;;;9.07;7.33;;;;;;;15.18;63.30;99761.84;6896099;28;20259;-78
2022/11/10 08:07:19;;;;;;;8.70;6.50;;;;;;;15.27;62.06;99774.13;6896596;28;20231;-78
2022/11/10 08:10:41;;;;;;;8.77;6.63;;;;;;;15.19;62.36;99762.66;6896337;28;20714;-77
2022/11/10 08:14:03;;;;;;;7.93;5.93;;;;;;;16.70;60.94;99778.16;6895421;28;20320;-78
2022/11/10 08:17:25;;;;;;;7.13;6.43;;;;;;;18.23;54.77;99772.38;6896108;28;20267;-78
2022/11/10 08:20:48;;;;;;;6.40;5.80;;;;;;;18.95;50.98;99728.44;6895975;28;20308;-78
2022/11/10 08:24:10;;;;;;;5.73;4.80;;;;;;;21.54;45.54;99762.91;6895660;28;20716;-78
2022/11/10 08:27:31;;;;;;;6.33;4.90;;;;;;;21.34;45.72;99770.00;6896231;28;20212;-78
2022/11/10 08:30:53;;;;;;;6.00;5.00;;;;;;;22.17;43.12;99784.38;6896217;28;20267;-78
2022/11/10 08:34:16;;;;;;;6.20;4.57;;;;;;;22.88;42.13;99778.59;6896593;28;20243;-78
2022/11/10 08:37:38;;;;;;;5.03;3.57;;;;;;;22.46;41.67;99797.69;6896707;28;20212;-79
2022/11/10 08:41:00;;;;;;;8.63;4.93;;;;;;;22.48;43.18;99784.53;6895720;28;20728;-78
2022/11/10 08:44:22;;;;;;;5.50;4.33;;;;;;;22.78;41.55;99778.53;6895752;28;20248;-78
2022/11/10 08:47:44;;;;;;;6.30;4.50;;;;;;;21.48;43.86;99779.59;6896219;28;20219;-78
2022/11/10 08:51:07;;;;;;;6.07;5.30;;;;;;;20.06;47.39;99784.66;6895299;28;20242;-78
2022/11/10 08:54:29;;;;;;;7.67;5.67;;;;;;;18.75;51.43;99800.88;6894832;28;20235;-78
2022/11/10 08:57:51;;;;;;;12.70;9.03;;;;;;;18.17;52.23;99715.97;6895588;28;20216;-78
2022/11/10 09:01:13;;;;;;;6.40;4.33;;;;;;;18.59;52.39;99738.69;6895213;28;20703;-78
2022/11/10 09:04:34;;;;;;;7.83;4.60;;;;;;;18.94;53.48;99813.38;6894623;28;20270;-78
2022/11/10 09:07:57;;;;;;;6.60;4.10;;;;;;;18.95;52.23;99809.59;6895684;28;20295;-78
2022/11/10 09:11:19;;;;;;;4.00;3.20;;;;;;;18.56;53.60;99818.34;6895012;28;20866;-78
2022/11/10 09:14:40;;;;;;;3.70;2.70;;;;;;;19.24;52.52;99814.19;6895948;28;20270;-78
2022/11/10 09:18:03;;;;;;;5.13;2.60;;;;;;;19.51;51.55;99820.88;6898989;28;20239;-78
2022/11/10 09:21:25;;;;;;;5.17;2.57;;;;;;;19.69;50.99;99823.47;6895338;28;20302;-77
2022/11/10 09:24:48;;;;;;;4.60;3.20;;;;;;;19.47;51.59;99836.09;6896932;28;20268;-78
2022/11/10 09:28:11;;;;;;;7.73;3.73;;;;;;;20.09;49.78;99835.34;6894754;28;20295;-78
2022/11/10 09:31:33;;;;;;;4.53;3.50;;;;;;;18.84;50.62;99786.63;6894181;28;20744;-78
2022/11/10 09:34:54;;;;;;;3.63;2.87;;;;;;;19.40;52.36;99832.63;6893311;28;20287;-78
2022/11/10 09:38:16;;;;;;;7.60;5.20;;;;;;;19.85;49.71;99820.84;6893553;28;20351;-77
2022/11/10 09:41:43;;;;;;;5.13;3.03;;;;;;;20.33;48.81;99837.78;6893170;28;20386;-78
2022/11/10 09:45:09;;;;;;;3.40;2.70;;;;;;;20.21;49.92;99834.25;6893294;28;20232;-78
2022/11/10 09:48:32;;;;;;;7.53;4.80;;;;;;;19.54;50.84;99858.69;6893692;28;20193;-78
2022/11/10 09:51:54;;;;;;;5.03;2.50;;;;;;;18.94;48.98;99863.44;6892839;28;20224;-78
2022/11/10 09:55:25;;;;;;;4.40;3.03;;;;;;;19.67;47.72;99866.66;6893131;28;20712;-78
2022/11/10 09:58:48;;;;;;;3.33;2.30;;;;;;;20.17;45.53;99867.84;6893932;28;20319;-78
2022/11/10 10:02:21;;;;;;;5.80;3.90;;;;;;;19.69;47.01;99875.47;6893191;28;20310;-78
2022/11/10 10:05:51;;;;;;;5.13;3.60;;;;;;;19.82;46.83;99878.78;6892954;28;20390;-78
2022/11/10 10:09:20;;;;;;;4.20;2.50;;;;;;;19.23;47.94;99845.34;6893524;28;20204;-78
2022/11/10 10:12:52;;;;;;;5.07;2.33;;;;;;;20.25;46.61;99864.72;6892983;28;20239;-78
2022/11/10 10:16:20;;;;;;;3.40;2.10;;;;;;;20.58;45.24;99873.91;6893886;28;20351;-78
2022/11/10 10:19:47;;;;;;;4.40;2.00;;;;;;;21.27;44.80;99878.28;6893190;28;20227;-78
2022/11/10 10:23:16;;;;;;;4.37;2.20;;;;;;;20.77;44.64;99889.13;6892722;28;20295;-78
2022/11/10 10:26:40;;;;;;;4.07;2.47;;;;;;;21.01;44.03;99877.00;6893149;28;20224;-78
2022/11/10 10:30:02;;;;;;;3.10;1.83;;;;;;;20.87;42.97;99872.84;6892787;28;20352;-78
2022/11/10 10:33:24;;;;;;;3.87;2.03;;;;;;;20.77;43.45;99875.41;6891932;28;20287;-79
2022/11/10 10:36:46;;;;;;;3.00;2.00;;;;;;;21.36;42.60;99886.66;6892211;28;20240;-78
2022/11/10 10:40:13;;;;;;;4.67;2.10;;;;;;;20.39;44.39;99877.91;6892322;28;20207;-78
2022/11/10 10:43:34;;;;;;;5.63;2.97;;;;;;;20.70;43.31;99858.25;6892335;28;20320;-75
2022/11/10 10:46:57;;;;;;;5.33;2.20;;;;;;;21.05;41.54;99882.81;6892746;28;20358;-75
2022/11/10 10:50:26;;;;;;;4.63;2.23;;;;;;;20.24;43.35;99865.78;6892898;28;20240;-77
2022/11/10 10:53:48;;;;;;;5.37;2.33;;;;;;;20.69;42.92;99859.34;6892537;28;20369;-77
2022/11/10 10:57:20;;;;;;;3.50;2.10;;;;;;;20.82;40.43;99872.75;6892891;28;20376;-78
2022/11/10 11:00:43;;;;;;;3.77;2.60;;;;;;;21.23;41.07;99871.63;6893000;28;20247;-77
2022/11/10 11:04:06;;;;;;;3.00;2.20;;;;;;;20.77;42.84;99878.97;6891903;28;20441;-78
2022/11/10 11:07:29;;;;;;;3.77;2.13;;;;;;;20.91;43.38;99879.53;6892493;28;20282;-78
2022/11/10 11:10:51;;;;;;;4.70;2.03;;;;;;;21.51;40.47;99843.03;6892092;28;20228;-78
2022/11/10 11:14:20;;;;;;;3.77;2.23;;;;;;;21.25;41.80;99873.03;6893305;28;20315;-79
2022/11/10 11:26:22;;;;;;;4.97;2.00;;;;;;;20.76;42.36;99872.91;6897190;28;20181;-78
2022/11/10 11:29:54;;;;;;;6.00;1.90;;;;;;;21.58;40.07;99879.38;6897066;28;20349;-77
2022/11/10 11:33:24;;;;;;;5.50;2.07;;;;;;;20.99;41.72;99873.66;6896782;28;20324;-79
2022/11/10 11:36:52;;;;;;;6.20;2.40;;;;;;;21.38;41.02;99873.56;6897873;28;20193;-78
2022/11/10 11:40:24;;;;;;;3.80;2.20;;;;;;;21.47;41.38;99869.28;6896590;28;20203;-79
2022/11/10 11:44:10;;;;;;;2.87;1.80;;;;;;;21.48;42.59;99881.94;6898116;28;20228;-79
2022/11/10 11:51:53;;;;;;;5.13;2.30;;;;;;;21.16;41.19;99876.44;6897266;28;20216;-78
2022/11/10 11:55:20;;;;;;;3.03;2.43;;;;;;;20.92;41.48;99883.13;6898477;28;20257;-78
2022/11/10 11:58:44;;;;;;;5.10;1.77;;;;;;;21.34;41.28;99875.13;6897969;28;20208;-79
2022/11/10 12:02:32;;;;;;;4.83;2.20;;;;;;;21.74;40.60;99866.75;6896977;28;20242;-79
2022/11/10 12:06:00;;;;;;;3.40;1.93;;;;;;;22.30;39.98;99870.03;6896946;28;20224;-78
2022/11/10 12:09:27;;;;;;;3.00;2.10;;;;;;;21.86;41.28;99856.47;6896614;28;20285;-78
2022/11/10 12:13:02;;;;;;;4.40;1.90;;;;;;;21.13;41.77;99864.88;6896751;28;20195;-78
2022/11/10 12:16:26;;;;;;;2.87;1.97;;;;;;;21.18;42.23;99851.25;6897215;28;20673;-78
2022/11/10 12:19:55;;;;;;;6.53;2.27;;;;;;;21.05;42.23;99849.91;6896545;28;20204;-78
2022/11/10 12:23:22;;;;;;;4.37;2.27;;;;;;;21.47;41.83;99858.31;6895169;28;20385;-78
2022/11/10 12:26:50;;;;;;;5.43;2.10;;;;;;;20.73;41.46;99849.56;6894988;28;20226;-78
2022/11/10 12:30:13;;;;;;;3.10;2.00;;;;;;;21.27;41.37;99862.63;6887728;28;20357;-78
2022/11/10 12:33:36;;;;;;;2.80;1.83;;;;;;;21.10;42.06;99845.34;6893890;28;20314;-78
2022/11/10 12:37:03;;;;;;;4.63;1.50;;;;;;;21.72;40.60;99860.69;6878893;28;20294;-78
2022/11/10 12:40:30;;;;;;;4.50;1.80;;;;;;;21.57;40.64;99855.75;6867257;28;20696;-78
2022/11/10 12:44:00;;;;;;;4.83;2.20;;;;;;;21.08;41.36;99837.34;6868344;28;20828;-78
2022/11/10 12:47:22;;;;;;;3.07;1.80;;;;;;;21.63;40.48;99849.25;6868790;28;20837;-78
2022/11/10 12:50:51;;;;;;;2.70;1.93;;;;;;;22.20;39.30;99852.56;6868422;28;20271;-78
2022/11/10 12:54:15;;;;;;;4.53;2.40;;;;;;;22.18;39.35;99854.75;6867918;28;20268;-78
2022/11/10 12:57:36;;;;;;;3.83;1.80;;;;;;;21.95;38.44;99847.56;6868229;28;20272;-78
2022/11/10 13:01:00;;;;;;;1.73;1.40;;;;;;;22.06;38.52;99843.88;6868599;28;20239;-78
2022/11/10 13:04:22;;;;;;;2.40;1.57;;;;;;;20.83;39.71;99813.28;6867509;28;20319;-78
2022/11/10 13:07:45;;;;;;;11.07;6.17;;;;;;;20.70;40.38;99844.53;6872114;28;20728;-78
2022/11/10 13:11:26;;;;;;;3.37;1.80;;;;;;;21.11;40.00;99862.63;6894479;28;20293;-78
2022/11/10 13:14:48;;;;;;;5.17;2.10;;;;;;;21.83;38.78;99859.75;6893549;28;20295;-78
2022/11/10 13:18:10;;;;;;;4.10;1.80;;;;;;;21.96;38.63;99865.69;6894503;28;20264;-78
2022/11/10 13:22:03;;;;;;;2.43;2.03;;;;;;;21.67;38.99;99877.06;6893904;28;20219;-78
2022/11/10 13:25:51;;;;;;;2.73;1.73;;;;;;;20.92;39.87;99878.47;6902495;28;20687;-78
2022/11/10 13:29:30;;;;;;;2.63;1.70;;;;;;;21.21;40.11;99888.31;6921180;28;20205;-78
2022/11/10 13:32:52;;;;;;;3.27;1.50;;;;;;;20.84;40.37;99885.13;6920721;28;20698;-78
2022/11/10 13:36:37;;;;;;;4.20;2.07;;;;;;;21.17;39.79;99878.09;6921153;28;20213;-78
2022/11/10 13:40:27;;;;;;;3.20;1.40;;;;;;;21.07;40.36;99873.25;6919284;28;20203;-78
2022/11/10 13:43:50;;;;;;;2.10;1.43;;;;;;;21.49;39.68;99847.91;6894853;28;20229;-78
2022/11/10 13:47:44;;;;;;;2.97;1.60;;;;;;;21.36;39.32;99866.66;6894036;28;20293;-78
2022/11/10 13:51:20;;;;;;;1.50;1.40;;;;;;;21.33;38.87;99869.06;6888422;28;20283;-78
2022/11/10 13:55:00;;;;;;;5.07;1.57;;;;;;;20.81;40.52;99881.22;6893260;28;20316;-78
2022/11/10 13:58:24;;;;;;;2.47;1.43;;;;;;;20.69;40.99;99883.19;6893746;28;20188;-78
2022/11/10 14:01:46;;;;;;;5.10;1.53;;;;;;;20.41;39.39;99885.88;6893324;28;20268;-78
2022/11/10 14:05:08;;;;;;;2.43;1.80;;;;;;;20.70;39.81;99884.84;6893090;28;20265;-78
2022/11/10 14:08:36;;;;;;;2.10;1.43;;;;;;;20.81;39.07;99889.47;6893005;28;20299;-78
2022/11/10 14:12:02;;;;;;;3.27;1.63;;;;;;;21.13;39.07;99880.50;6893877;28;20744;-78
2022/11/10 14:15:25;;;;;;;1.50;1.40;;;;;;;21.28;40.21;99894.47;6892939;28;20729;-78
2022/11/10 14:18:50;;;;;;;5.13;1.67;;;;;;;21.24;38.98;99898.81;6899615;28;20243;-78
2022/11/10 14:22:20;;;;;;;2.00;1.37;;;;;;;21.18;40.94;99897.06;6893765;28;20284;-78
2022/11/10 14:25:43;;;;;;;2.23;1.40;;;;;;;20.90;42.20;99907.19;6893913;28;20235;-79
2022/11/10 14:29:34;;;;;;;3.30;1.70;;;;;;;20.65;42.89;99896.56;6895036;28;20239;-78
2022/11/10 14:33:01;;;;;;;2.30;1.50;;;;;;;20.07;43.92;99909.53;6893459;28;20570;-78
2022/11/10 14:36:23;;;;;;;3.13;1.80;;;;;;;20.42;43.84;99906.72;6893723;28;20279;-78
2022/11/10 14:39:44;;;;;;;2.80;1.70;;;;;;;20.55;43.03;99899.06;6892818;28;20729;-78
2022/11/10 14:43:24;;;;;;;1.67;1.53;;;;;;;19.58;44.67;99909.94;6893017;28;20307;-78
2022/11/10 14:46:46;;;;;;;1.40;1.30;;;;;;;19.81;44.02;99906.41;6892963;28;20227;-78
2022/11/10 14:50:16;;;;;;;4.27;1.70;;;;;;;19.78;44.97;99917.81;6895807;28;20720;-78
2022/11/10 14:53:39;;;;;;;2.53;1.53;;;;;;;19.82;44.25;99919.84;6898032;28;20231;-78
2022/11/10 14:57:01;;;;;;;2.93;1.70;;;;;;;19.75;44.97;99929.25;6899003;28;20294;-78
2022/11/10 15:00:26;;;;;;;2.13;1.60;;;;;;;19.54;45.62;99938.88;6898509;28;20300;-78
2022/11/10 15:03:48;;;;;;;2.47;1.70;;;;;;;19.00;46.79;99949.97;6898726;28;20263;-78
2022/11/10 15:07:10;;;;;;;3.33;1.63;;;;;;;19.22;46.05;99953.88;6899147;28;20236;-78
2022/11/10 15:10:44;;;;;;;3.70;1.97;;;;;;;19.00;46.95;99949.97;6899962;28;20322;-78
2022/11/10 15:14:30;;;;;;;4.97;2.00;;;;;;;18.75;48.10;99957.44;6897831;28;20701;-78
2022/11/10 15:17:53;;;;;;;3.17;2.07;;;;;;;18.75;47.83;99953.88;6895339;28;20423;-78
2022/11/10 15:21:16;;;;;;;8.53;2.10;;;;;;;18.57;48.13;99946.53;6897489;28;20207;-78
2022/11/10 15:24:41;;;;;;;9.73;2.80;;;;;;;18.41;48.76;99959.97;6896813;28;20274;-78
2022/11/10 15:28:06;;;;;;;7.00;2.60;;;;;;;17.75;50.21;99915.28;6896687;28;20297;-78
2022/11/10 15:31:29;;;;;;;4.37;2.27;;;;;;;17.91;50.24;99955.63;6897781;28;20280;-78
2022/11/10 15:34:52;;;;;;;6.80;2.97;;;;;;;17.93;50.88;99969.88;6899772;28;20322;-78
2022/11/10 15:38:25;;;;;;;2.73;2.50;;;;;;;17.12;52.92;99989.97;6898058;28;20227;-78
2022/11/10 15:41:48;;;;;;;8.30;3.20;;;;;;;16.91;53.30;99974.78;6897748;28;20197;-78
2022/11/10 15:45:09;;;;;;;7.33;2.73;;;;;;;17.07;53.09;99974.28;6896474;28;20311;-78
2022/11/10 15:48:37;;;;;;;6.27;2.60;;;;;;;17.20;52.53;99970.63;6897506;28;20388;-78
2022/11/10 15:52:02;;;;;;;7.07;3.27;;;;;;;16.98;53.56;99989.19;6897197;28;20224;-78
2022/11/10 15:55:24;;;;;;;7.03;2.57;;;;;;;16.64;54.50;100005.06;6886044;28;20317;-78
2022/11/10 15:58:47;;;;;;;5.27;2.67;;;;;;;16.72;53.55;99991.19;6870500;28;20217;-78
2022/11/10 16:02:17;;;;;;;4.67;2.70;;;;;;;16.00;55.06;99990.53;6870923;28;20679;-79
2022/11/10 16:05:40;;;;;;;5.20;3.10;;;;;;;15.89;56.14;99985.72;6870453;28;20233;-78
2022/11/10 16:09:03;;;;;;;4.63;3.33;;;;;;;15.32;56.31;99912.94;6870596;28;20209;-78
2022/11/10 16:12:24;;;;;;;7.50;3.10;;;;;;;15.72;56.07;100026.09;6869757;28;20261;-78
2022/11/10 16:15:46;;;;;;;5.37;3.47;;;;;;;15.32;57.00;100020.78;6877090;28;20217;-78
2022/11/10 16:19:09;;;;;;;9.90;3.73;;;;;;;15.08;58.05;99981.44;6894454;28;20297;-78
2022/11/10 16:22:31;;;;;;;7.13;3.27;;;;;;;15.45;57.54;100018.13;6893295;28;20343;-78